createdAt,value
2022-09-10T00:00:03.035Z,4.60
2022-09-10T00:02:51.986Z,2.10
2022-09-10T00:05:56.845Z,3.10
2022-09-10T00:08:45.714Z,3.43
2022-09-10T00:11:23.529Z,3.73
2022-09-10T00:14:09.175Z,3.97
2022-09-10T00:17:11.823Z,3.70
2022-09-10T00:19:39.833Z,2.37
2022-09-10T00:22:07.404Z,2.43
2022-09-10T00:24:34.964Z,3.50
2022-09-10T00:27:04.478Z,3.93
2022-09-10T00:29:32.380Z,3.53
2022-09-10T00:32:04.400Z,5.77
2022-09-10T00:34:32.817Z,3.40
2022-09-10T00:37:10.243Z,2.21
2022-09-10T00:39:38.285Z,6.33
2022-09-10T00:42:06.314Z,4.27
2022-09-10T00:44:39.675Z,4.73
2022-09-10T00:47:21.801Z,3.17
2022-09-10T00:49:55.738Z,5.50
2022-09-10T00:52:30.783Z,4.87
2022-09-10T00:55:02.591Z,5.23
2022-09-10T00:57:34.250Z,6.57
2022-09-10T01:00:19.168Z,6.27
2022-09-10T01:02:58.939Z,4.63
2022-09-10T01:05:39.225Z,3.73
2022-09-10T01:11:52.914Z,3.10
2022-09-10T01:20:41.411Z,5.17
2022-09-10T01:23:31.282Z,5.77
2022-09-10T01:26:32.924Z,3.57
2022-09-10T01:29:27.398Z,5.13
2022-09-10T01:32:21.003Z,5.27
2022-09-10T01:35:00.710Z,5.20
2022-09-10T01:37:33.301Z,3.63
2022-09-10T01:40:04.136Z,4.50
2022-09-10T01:42:32.377Z,5.77
2022-09-10T01:45:01.210Z,5.07
2022-09-10T01:47:59.215Z,4.57
2022-09-10T01:50:39.526Z,4.90
2022-09-10T01:53:25.173Z,6.27
2022-09-10T01:56:04.477Z,5.87
2022-09-10T01:58:37.632Z,5.07
2022-09-10T02:01:20.775Z,3.40
2022-09-10T02:03:52.106Z,5.17
2022-09-10T02:06:23.231Z,4.07
2022-09-10T02:08:54.243Z,9.67
2022-09-10T02:11:22.054Z,4.07
2022-09-10T02:13:50.370Z,4.47
2022-09-10T02:16:25.825Z,3.83
2022-09-10T02:18:53.561Z,3.57
2022-09-10T02:21:21.164Z,4.60
2022-09-10T02:23:53.781Z,4.50
2022-09-10T02:26:21.619Z,3.93
2022-09-10T02:28:49.682Z,3.47
2022-09-10T02:31:18.662Z,6.63
2022-09-10T02:33:46.309Z,4.80
2022-09-10T02:36:13.911Z,8.13
2022-09-10T02:38:41.468Z,3.87
2022-09-10T02:41:09.730Z,3.93
2022-09-10T02:43:38.095Z,8.83
2022-09-10T02:46:09.086Z,7.37
2022-09-10T02:48:36.935Z,7.50
2022-09-10T02:51:04.606Z,6.13
2022-09-10T02:53:32.346Z,3.90
2022-09-10T02:56:00.971Z,4.33
2022-09-10T02:58:31.374Z,4.97
2022-09-10T03:01:10.979Z,4.47
2022-09-10T03:03:39.189Z,4.83
2022-09-10T03:06:07.486Z,6.47
2022-09-10T03:08:35.850Z,3.93
2022-09-10T03:11:04.377Z,5.17
2022-09-10T03:13:31.980Z,4.13
2022-09-10T03:15:59.981Z,4.30
2022-09-10T03:18:28.086Z,4.57
2022-09-10T03:20:55.688Z,5.10
2022-09-10T03:23:23.506Z,5.20
2022-09-10T03:25:51.075Z,4.47
2022-09-10T03:28:19.232Z,6.57
2022-09-10T03:30:46.776Z,6.57
2022-09-10T03:33:15.037Z,6.17
2022-09-10T03:35:42.602Z,5.23
2022-09-10T03:38:48.909Z,4.93
2022-09-10T03:41:22.879Z,4.90
2022-09-10T03:43:50.427Z,5.67
2022-09-10T03:46:18.037Z,4.73
2022-09-10T03:48:45.593Z,5.13
2022-09-10T03:51:13.313Z,4.47
2022-09-10T03:53:40.982Z,5.47
2022-09-10T03:56:09.008Z,4.20
2022-09-10T03:58:36.720Z,4.63
2022-09-10T04:01:04.769Z,3.70
2022-09-10T04:03:32.801Z,7.73
2022-09-10T04:06:00.455Z,4.73
2022-09-10T04:08:27.984Z,5.10
2022-09-10T04:11:02.066Z,4.93
2022-09-10T04:13:29.883Z,5.27
2022-09-10T04:15:58.110Z,5.77
2022-09-10T04:18:26.602Z,5.77
2022-09-10T04:20:56.166Z,5.80
2022-09-10T04:23:23.785Z,6.80
2022-09-10T04:25:52.339Z,5.10
2022-09-10T04:28:19.937Z,7.30
2022-09-10T04:30:48.112Z,5.00
2022-09-10T04:33:15.753Z,9.10
2022-09-10T04:35:43.820Z,5.97
2022-09-10T04:38:11.659Z,5.57
2022-09-10T04:40:39.291Z,6.40
2022-09-10T04:43:07.313Z,5.80
2022-09-10T04:45:35.060Z,5.33
2022-09-10T04:48:06.833Z,5.57
2022-09-10T04:50:35.513Z,7.20
2022-09-10T04:53:03.153Z,7.67
2022-09-10T04:55:31.951Z,6.17
2022-09-10T04:57:59.524Z,7.20
2022-09-10T05:00:27.064Z,4.87
2022-09-10T05:02:54.609Z,5.87
2022-09-10T05:05:22.145Z,6.70
2022-09-10T05:07:49.720Z,7.77
2022-09-10T05:10:17.503Z,4.83
2022-09-10T05:12:45.105Z,11.93
2022-09-10T05:15:12.739Z,5.90
2022-09-10T05:17:40.439Z,5.27
2022-09-10T05:20:08.358Z,5.60
2022-09-10T05:22:40.324Z,6.30
2022-09-10T05:25:09.630Z,7.17
2022-09-10T05:27:37.270Z,6.77
2022-09-10T05:30:05.614Z,7.80
2022-09-10T05:32:33.215Z,5.63
2022-09-10T05:35:02.056Z,10.37
2022-09-10T05:37:29.680Z,5.37
2022-09-10T05:39:57.267Z,8.27
2022-09-10T05:42:24.817Z,5.47
2022-09-10T05:44:53.108Z,4.57
2022-09-10T05:47:20.923Z,5.47
2022-09-10T05:49:49.595Z,6.83
2022-09-10T05:52:17.202Z,7.30
2022-09-10T05:54:44.825Z,6.27
2022-09-10T05:57:12.534Z,8.93
2022-09-10T05:59:40.131Z,6.70
2022-09-10T06:02:10.289Z,5.03
2022-09-10T06:04:38.052Z,4.57
2022-09-10T06:07:23.083Z,3.93
2022-09-10T06:09:54.964Z,5.13
2022-09-10T06:12:35.801Z,4.03
2022-09-10T06:15:54.390Z,4.50
2022-09-10T06:18:36.755Z,6.43
2022-09-10T06:34:00.313Z,4.53
2022-09-10T06:36:44.148Z,8.37
2022-09-10T06:39:53.390Z,3.20
2022-09-10T06:42:30.285Z,3.60
2022-09-10T06:45:00.430Z,3.47
2022-09-10T06:48:12.809Z,3.60
2022-09-10T06:50:25.329Z,6.23
2022-09-10T06:52:57.282Z,4.07
2022-09-10T06:55:25.839Z,2.70
2022-09-10T06:57:55.456Z,3.47
2022-09-10T07:00:26.168Z,5.43
2022-09-10T07:03:06.590Z,4.53
2022-09-10T07:08:32.231Z,2.53
2022-09-10T07:11:12.595Z,6.97
2022-09-10T07:13:51.251Z,3.83
2022-09-10T07:16:40.092Z,4.53
2022-09-10T07:19:34.786Z,3.30
2022-09-10T07:22:12.972Z,3.37
2022-09-10T07:25:02.333Z,2.03
2022-09-10T07:28:05.347Z,3.55
2022-09-10T07:30:54.178Z,3.27
2022-09-10T07:37:16.766Z,2.35
2022-09-10T07:40:06.311Z,2.78
2022-09-10T07:42:50.436Z,3.35
2022-09-10T07:45:28.578Z,2.15
2022-09-10T07:48:12.701Z,2.00
2022-09-10T07:51:02.643Z,4.38
2022-09-10T07:53:50.003Z,2.45
2022-09-10T07:56:18.315Z,1.67
2022-09-10T07:58:46.379Z,1.38
2022-09-10T08:01:14.219Z,2.88
2022-09-10T08:03:41.926Z,3.08
2022-09-10T08:06:09.780Z,5.33
2022-09-10T08:08:39.738Z,2.22
2022-09-10T08:11:11.882Z,3.22
2022-09-10T08:13:45.344Z,2.47
2022-09-10T08:16:16.096Z,3.45
2022-09-10T08:18:43.786Z,3.47
2022-09-10T08:21:11.430Z,5.13
2022-09-10T08:23:43.717Z,3.20
2022-09-10T08:26:11.389Z,2.75
2022-09-10T08:28:39.950Z,4.57
2022-09-10T08:31:11.628Z,2.28
2022-09-10T08:33:40.691Z,2.92
2022-09-10T08:36:12.151Z,4.88
2022-09-10T08:38:41.004Z,3.28
2022-09-10T08:41:35.734Z,3.63
2022-09-10T08:44:48.085Z,3.60
2022-09-10T08:47:42.672Z,5.53
2022-09-10T08:50:41.620Z,4.07
2022-09-10T08:56:48.224Z,4.00
2022-09-10T08:59:56.332Z,3.72
2022-09-10T09:02:57.204Z,4.95
2022-09-10T09:05:45.611Z,3.60
2022-09-10T09:08:17.910Z,2.78
2022-09-10T09:10:51.992Z,4.38
2022-09-10T09:13:43.062Z,3.58
2022-09-10T09:16:24.362Z,3.15
2022-09-10T09:19:18.236Z,2.60
2022-09-10T09:21:56.725Z,3.60
2022-09-10T09:24:44.488Z,3.55
2022-09-10T09:27:20.101Z,1.85
2022-09-10T09:29:54.932Z,4.38
2022-09-10T09:32:23.743Z,5.60
2022-09-10T09:35:25.760Z,6.65
2022-09-10T09:38:05.377Z,2.95
2022-09-10T09:40:48.424Z,3.80
2022-09-10T09:43:41.921Z,3.83
2022-09-10T09:46:18.499Z,3.35
2022-09-10T09:48:53.479Z,4.50
2022-09-10T09:51:22.098Z,4.88
2022-09-10T09:54:01.002Z,3.17
2022-09-10T09:56:42.836Z,3.95
2022-09-10T09:59:27.298Z,3.03
2022-09-10T10:02:00.753Z,1.77
2022-09-10T10:04:33.792Z,2.30
2022-09-10T10:07:02.587Z,3.13
2022-09-10T10:09:32.625Z,2.78
2022-09-10T10:12:18.571Z,3.85
2022-09-10T10:14:46.195Z,2.33
2022-09-10T10:17:22.882Z,2.30
2022-09-10T10:20:19.618Z,1.90
2022-09-10T10:22:50.774Z,1.40
2022-09-10T10:25:41.446Z,3.13
2022-09-10T10:28:22.967Z,2.17
2022-09-10T10:30:53.595Z,1.73
2022-09-10T10:33:28.651Z,0.95
2022-09-10T10:36:19.272Z,2.38
2022-09-10T10:39:24.275Z,1.73
2022-09-10T10:42:20.974Z,1.30
2022-09-10T10:45:10.600Z,2.45
2022-09-10T10:47:51.893Z,1.90
2022-09-10T10:51:02.863Z,1.38
2022-09-10T10:54:02.748Z,0.93
2022-09-10T10:56:42.502Z,1.67
2022-09-10T10:59:28.907Z,0.68
2022-09-10T11:02:14.149Z,0.90
2022-09-10T11:04:49.857Z,0.95
2022-09-10T11:07:35.461Z,0.82
2022-09-10T11:10:23.441Z,0.50
2022-09-10T11:13:13.630Z,1.10
2022-09-10T11:15:59.529Z,0.85
2022-09-10T11:18:42.702Z,1.42
2022-09-10T11:21:41.802Z,0.60
2022-09-10T11:24:18.918Z,0.80
2022-09-10T11:27:16.827Z,1.25
2022-09-10T11:30:06.629Z,0.47
2022-09-10T11:32:39.852Z,0.50
2022-09-10T11:35:29.657Z,1.10
2022-09-10T11:38:24.656Z,1.90
2022-09-10T11:40:58.887Z,0.65
2022-09-10T11:43:47.435Z,0.68
2022-09-10T11:46:39.027Z,0.63
2022-09-10T11:49:16.081Z,1.85
2022-09-10T11:51:44.917Z,0.55
2022-09-10T11:54:28.597Z,0.47
2022-09-10T11:57:00.244Z,1.83
2022-09-10T11:59:55.198Z,0.60
2022-09-10T12:02:47.326Z,0.50
2022-09-10T12:05:48.274Z,0.93
2022-09-10T12:08:25.181Z,0.30
2022-09-10T12:11:19.236Z,0.55
2022-09-10T12:14:17.014Z,0.98
2022-09-10T12:17:03.308Z,0.50
2022-09-10T12:19:51.510Z,0.40
2022-09-10T12:22:28.612Z,0.40
2022-09-10T12:25:02.971Z,0.82
2022-09-10T12:27:44.254Z,0.57
2022-09-10T12:30:27.511Z,1.65
2022-09-10T12:33:01.098Z,0.63
2022-09-10T12:35:31.391Z,0.50
2022-09-10T12:38:36.637Z,1.38
2022-09-10T12:41:09.375Z,0.57
2022-09-10T12:43:43.382Z,1.25
2022-09-10T12:46:12.553Z,0.45
2022-09-10T12:49:05.335Z,0.65
2022-09-10T12:51:51.613Z,0.50
2022-09-10T12:54:43.769Z,1.45
2022-09-10T12:57:30.878Z,0.68
2022-09-10T13:00:13.398Z,1.35
2022-09-10T13:03:00.315Z,0.88
2022-09-10T13:05:32.096Z,1.13
2022-09-10T13:08:09.813Z,1.10
2022-09-10T13:10:38.742Z,1.05
2022-09-10T13:13:24.896Z,1.92
2022-09-10T13:15:53.654Z,0.50
2022-09-10T13:18:44.511Z,0.47
2022-09-10T13:21:24.112Z,0.73
2022-09-10T13:23:53.445Z,0.90
2022-09-10T13:26:34.062Z,1.40
2022-09-10T13:29:11.216Z,0.98
2022-09-10T13:31:44.717Z,0.40
2022-09-10T13:34:15.362Z,0.55
2022-09-10T13:36:48.071Z,0.88
2022-09-10T13:39:40.150Z,1.13
2022-09-10T13:42:17.239Z,0.90
2022-09-10T13:45:09.483Z,0.40
2022-09-10T13:48:02.934Z,0.38
2022-09-10T13:50:39.856Z,0.35
2022-09-10T13:53:10.645Z,0.40
2022-09-10T13:55:41.101Z,0.88
2022-09-10T13:58:16.431Z,0.60
2022-09-10T14:00:53.810Z,0.60
2022-09-10T14:03:25.066Z,0.63
2022-09-10T14:06:07.567Z,0.52
2022-09-10T14:08:45.501Z,1.58
2022-09-10T14:11:13.010Z,1.50
2022-09-10T14:13:51.803Z,1.10
2022-09-10T14:16:30.201Z,0.88
2022-09-10T14:19:01.727Z,1.00
2022-09-10T14:21:29.811Z,0.80
2022-09-10T14:23:59.695Z,1.40
2022-09-10T14:26:30.074Z,0.70
2022-09-10T14:29:03.908Z,1.00
2022-09-10T14:31:35.371Z,1.38
2022-09-10T14:34:30.190Z,0.95
2022-09-10T14:36:59.394Z,2.63
2022-09-10T14:39:27.420Z,3.25
2022-09-10T14:42:25.062Z,3.53
2022-09-10T14:44:53.237Z,1.73
2022-09-10T14:47:33.496Z,3.70
2022-09-10T14:50:28.617Z,2.97
2022-09-10T14:52:56.560Z,1.13
2022-09-10T14:55:30.773Z,1.13
2022-09-10T14:58:05.180Z,1.55
2022-09-10T15:00:44.465Z,1.45
2022-09-10T15:03:29.591Z,1.10
2022-09-10T15:06:00.451Z,2.20
2022-09-10T15:08:41.420Z,2.67
2022-09-10T15:11:29.778Z,2.25
2022-09-10T15:14:19.126Z,2.33
2022-09-10T15:16:54.318Z,4.30
2022-09-10T15:19:25.449Z,11.73
2022-09-10T15:22:56.920Z,2.78
2022-09-10T15:26:02.409Z,2.67
2022-09-10T15:28:51.084Z,2.53
2022-09-10T15:31:50.687Z,1.73
2022-09-10T15:34:21.156Z,1.58
2022-09-10T15:36:48.734Z,1.60
2022-09-10T15:39:16.326Z,1.58
2022-09-10T15:41:44.688Z,1.58
2022-09-10T15:44:12.627Z,2.20
2022-09-10T15:46:42.138Z,0.90
2022-09-10T15:49:09.790Z,1.15
2022-09-10T15:51:37.767Z,0.93
2022-09-10T15:54:06.794Z,3.33
2022-09-10T15:56:36.510Z,1.35
2022-09-10T15:59:05.974Z,1.02
2022-09-10T16:01:37.817Z,1.58
2022-09-10T16:04:06.427Z,1.88
2022-09-10T16:06:37.650Z,2.05
2022-09-10T16:09:13.277Z,1.17
2022-09-10T16:11:42.215Z,2.95
2022-09-10T16:14:13.590Z,2.45
2022-09-10T16:16:41.606Z,1.88
2022-09-10T16:19:14.262Z,1.20
2022-09-10T16:21:41.874Z,2.22
2022-09-10T16:24:09.979Z,1.45
2022-09-10T16:26:43.643Z,2.30
2022-09-10T16:29:16.752Z,3.70
2022-09-10T16:31:48.316Z,3.67
2022-09-10T16:34:20.448Z,3.67
2022-09-10T16:36:49.087Z,1.60
2022-09-10T16:39:18.352Z,3.85
2022-09-10T16:41:48.373Z,1.75
2022-09-10T16:44:17.679Z,3.45
2022-09-10T16:46:46.999Z,1.33
2022-09-10T16:49:17.745Z,4.10
2022-09-10T16:51:47.026Z,2.08
2022-09-10T16:54:15.805Z,2.43
2022-09-10T16:56:45.364Z,2.00
2022-09-10T16:59:15.612Z,1.60
2022-09-10T17:01:44.451Z,2.13
2022-09-10T17:04:23.364Z,2.63
2022-09-10T17:06:53.869Z,2.27
2022-09-10T17:09:22.481Z,2.87
2022-09-10T17:11:51.051Z,1.97
2022-09-10T17:14:19.181Z,2.73
2022-09-10T17:16:48.035Z,5.53
2022-09-10T17:19:23.539Z,3.00
2022-09-10T17:21:55.101Z,2.13
2022-09-10T17:24:25.229Z,2.60
2022-09-10T17:26:54.972Z,1.93
2022-09-10T17:29:24.692Z,3.10
2022-09-10T17:31:52.476Z,2.47
2022-09-10T17:34:21.413Z,4.10
2022-09-10T17:36:49.529Z,3.13
2022-09-10T17:39:17.747Z,2.90
2022-09-10T17:41:45.509Z,2.50
2022-09-10T17:44:13.439Z,2.60
2022-09-10T17:46:42.674Z,4.03
2022-09-10T17:49:13.535Z,5.83
2022-09-10T17:51:42.210Z,2.83
2022-09-10T17:54:10.396Z,2.30
2022-09-10T17:56:38.135Z,3.77
2022-09-10T17:59:06.411Z,2.93
2022-09-10T18:01:39.040Z,4.10
2022-09-10T18:04:09.215Z,5.03
2022-09-10T18:06:37.115Z,3.37
2022-09-10T18:09:05.732Z,2.30
2022-09-10T18:11:36.405Z,2.10
2022-09-10T18:14:04.764Z,1.90
2022-09-10T18:16:34.209Z,1.93
2022-09-10T18:19:14.280Z,4.87
2022-09-10T18:21:43.770Z,1.60
2022-09-10T18:24:20.829Z,1.60
2022-09-10T18:26:50.495Z,1.63
2022-09-10T18:29:30.237Z,1.93
2022-09-10T18:32:00.649Z,3.10
2022-09-10T18:34:29.953Z,5.53
2022-09-10T18:37:00.193Z,1.33
2022-09-10T18:39:30.630Z,3.63
2022-09-10T18:42:00.269Z,2.53
2022-09-10T18:44:30.622Z,1.43
2022-09-10T18:46:58.420Z,1.10
2022-09-10T18:49:26.669Z,1.20
2022-09-10T18:51:55.948Z,1.30
2022-09-10T18:54:24.612Z,1.50
2022-09-10T18:56:52.785Z,1.10
2022-09-10T18:59:23.211Z,1.70
2022-09-10T19:01:53.440Z,1.53
2022-09-10T19:04:24.190Z,1.10
2022-09-10T19:06:52.625Z,2.33
2022-09-10T19:09:29.298Z,0.93
2022-09-10T19:12:00.344Z,2.40
2022-09-10T19:14:30.403Z,2.33
2022-09-10T19:17:00.363Z,1.33
2022-09-10T19:19:34.042Z,2.63
2022-09-10T19:22:06.077Z,3.37
2022-09-10T19:27:22.556Z,2.57
2022-09-10T19:29:50.462Z,1.90
2022-09-10T19:32:19.749Z,1.47
2022-09-10T19:34:51.452Z,1.77
2022-09-10T19:37:19.729Z,3.10
2022-09-10T19:39:47.587Z,3.10
2022-09-10T19:42:15.334Z,3.17
2022-09-10T19:44:43.619Z,1.80
2022-09-10T19:47:11.173Z,4.60
2022-09-10T19:49:39.083Z,1.60
2022-09-10T19:52:06.657Z,1.83
2022-09-10T19:54:34.967Z,2.27
2022-09-10T19:57:02.545Z,1.33
2022-09-10T19:59:30.102Z,2.80
2022-09-10T20:01:57.809Z,3.00
2022-09-10T20:04:25.797Z,2.07
2022-09-10T20:06:53.401Z,1.87
2022-09-10T20:09:21.067Z,1.53
2022-09-10T20:11:48.914Z,1.40
2022-09-10T20:14:16.627Z,2.27
2022-09-10T20:16:45.588Z,1.63
2022-09-10T20:19:17.953Z,1.77
2022-09-10T20:21:47.505Z,1.90
2022-09-10T20:24:16.305Z,1.50
2022-09-10T20:26:46.175Z,1.73
2022-09-10T20:29:16.138Z,2.63
2022-09-10T20:31:46.168Z,2.03
2022-09-10T20:34:17.570Z,1.40
2022-09-10T20:36:45.561Z,1.47
2022-09-10T20:39:17.659Z,2.37
2022-09-10T20:41:46.017Z,3.13
2022-09-10T20:44:16.134Z,1.10
2022-09-10T20:46:44.270Z,2.20
2022-09-10T20:49:13.069Z,1.73
2022-09-10T20:51:41.465Z,2.90
2022-09-10T20:54:12.384Z,1.90
2022-09-10T20:56:40.686Z,2.27
2022-09-10T20:59:08.902Z,2.43
2022-09-10T21:01:38.530Z,1.20
2022-09-10T21:04:06.682Z,1.47
2022-09-10T21:06:35.115Z,1.47
2022-09-10T21:09:03.751Z,2.00
2022-09-10T21:11:33.822Z,3.20
2022-09-10T21:14:03.421Z,3.60
2022-09-10T21:16:36.567Z,3.23
2022-09-10T21:19:13.012Z,3.70
2022-09-10T21:21:41.806Z,2.10
2022-09-10T21:24:17.480Z,3.07
2022-09-10T21:26:45.081Z,3.00
2022-09-10T21:29:15.065Z,2.33
2022-09-10T21:31:43.429Z,2.47
2022-09-10T21:34:11.605Z,3.27
2022-09-10T21:36:41.185Z,3.27
2022-09-10T21:39:13.390Z,2.73
2022-09-10T21:41:49.273Z,3.07
2022-09-10T21:44:19.665Z,3.30
2022-09-10T21:46:48.559Z,4.13
2022-09-10T21:49:17.304Z,3.13
2022-09-10T21:51:45.257Z,2.37
2022-09-10T21:54:18.891Z,3.60
2022-09-10T21:56:47.571Z,4.17
2022-09-10T21:59:16.074Z,3.60
2022-09-10T22:01:45.237Z,3.13
2022-09-10T22:04:17.858Z,4.27
2022-09-10T22:06:49.390Z,3.10
2022-09-10T22:09:17.519Z,3.97
2022-09-10T22:11:47.886Z,4.93
2022-09-10T22:14:21.350Z,3.63
2022-09-10T22:16:49.568Z,3.77
2022-09-10T22:19:22.819Z,3.10
2022-09-10T22:21:51.842Z,3.17
2022-09-10T22:24:19.832Z,3.80
2022-09-10T22:26:47.629Z,3.13
2022-09-10T22:29:17.890Z,3.87
2022-09-10T22:31:46.273Z,3.20
2022-09-10T22:34:15.921Z,4.43
2022-09-10T22:36:45.514Z,3.00
2022-09-10T22:39:16.045Z,3.00
2022-09-10T22:41:44.964Z,3.47
2022-09-10T22:44:13.007Z,4.10
2022-09-10T22:46:41.287Z,3.23
2022-09-10T22:49:09.932Z,3.90
2022-09-10T22:51:40.814Z,3.93
2022-09-10T22:54:08.937Z,2.60
2022-09-10T22:56:36.932Z,3.97
2022-09-10T22:59:05.993Z,3.67
2022-09-10T23:01:38.370Z,3.90
2022-09-10T23:04:07.643Z,3.47
2022-09-10T23:06:37.735Z,3.43
2022-09-10T23:09:14.153Z,2.90
2022-09-10T23:11:42.336Z,2.80
2022-09-10T23:14:15.978Z,3.77
2022-09-10T23:16:48.283Z,3.47
2022-09-10T23:19:21.122Z,3.50
2022-09-10T23:21:52.115Z,3.63
2022-09-10T23:24:22.190Z,4.27
2022-09-10T23:26:50.605Z,5.20
2022-09-10T23:29:18.446Z,4.50
2022-09-10T23:31:47.589Z,4.10
2022-09-10T23:34:18.287Z,3.23
2022-09-10T23:36:48.179Z,4.00
2022-09-10T23:39:19.962Z,4.37
2022-09-10T23:41:49.601Z,4.57
2022-09-10T23:44:17.521Z,3.83
2022-09-10T23:46:46.765Z,3.70
2022-09-10T23:49:14.419Z,3.90
2022-09-10T23:51:42.085Z,4.90
2022-09-10T23:54:12.211Z,4.27
2022-09-10T23:56:40.094Z,5.23
2022-09-10T23:59:08.020Z,4.70
